Date,TemperatureHighF,TemperatureAvgF,TemperatureLowF,DewpointHighF,DewpointAvgF,DewpointLowF,HumidityHigh,HumidityAvg,HumidityLow,PressureMaxIn,PressureMinIn,WindSpeedMaxMPH,WindSpeedAvgMPH,GustSpeedMaxMPH,PrecipitationSumIn
2012-1-1,55.0,46.8,40.1,35.0,24.3,15.0,62,44,22,30.58,30.08,12,5,0,0.00
2012-1-2,43.9,37.3,30.6,23.0,8.6,1.0,50,32,17,30.75,30.53,13,3,0,0.00
2012-1-3,54.7,40.0,25.6,24.0,16.9,10.0,63,41,24,30.55,30.10,18,7,0,0.00
2012-1-4,62.0,48.2,37.0,30.0,26.0,23.0,63,44,23,30.30,30.09,12,2,0,0.00
2012-1-5,67.3,51.2,37.9,30.0,27.9,25.0,68,44,21,30.27,29.93,12,5,0,0.00
2012-1-6,69.1,54.9,44.1,42.0,35.4,31.0,68,50,31,29.93,29.75,19,6,0,0.00
2012-1-7,59.2,49.2,40.3,32.0,25.9,22.0,58,42,24,30.09,29.93,17,7,0,0.00
2012-1-8,53.9,47.2,38.9,30.0,26.6,24.0,66,46,35,30.21,30.06,12,6,0,0.00
2012-1-9,53.8,41.9,31.6,31.0,25.4,18.0,81,56,27,30.25,30.09,14,4,0,0.00
2012-1-10,49.9,44.4,37.8,37.0,29.1,25.0,81,56,45,30.08,29.73,7,2,0,0.00
2012-1-11,61.0,43.3,28.4,35.0,30.7,25.0,89,65,30,30.01,29.61,18,5,0,0.02
2012-1-12,33.7,28.3,22.4,25.0,7.4,-1.0,84,43,26,30.16,30.00,19,8,0,0.00
2012-1-13,47.9,33.9,21.9,18.0,7.5,0.0,53,35,19,30.24,30.08,13,2,0,0.00
2012-1-14,55.1,43.9,34.4,22.0,20.4,18.0,59,41,25,30.26,30.04,13,3,0,0.00
2012-1-15,62.1,48.7,35.6,43.0,28.0,22.0,62,47,22,30.23,29.89,21,10,0,0.00
2012-1-16,71.6,63.1,56.6,58.0,52.2,44.0,78,68,50,29.88,29.66,29,14,0,0.00
2012-1-17,64.5,36.8,26.0,57.0,19.8,12.0,76,51,34,30.41,29.65,16,7,0,0.00
2012-1-18,45.1,33.4,22.2,23.0,15.8,11.0,69,51,27,30.39,29.96,12,4,0,0.00
2012-1-19,55.6,40.3,31.9,30.0,23.5,-99.9,70,55,37,29.94,29.78,12,-17,0,0.00
2012-1-20,43.8,34.1,27.2,36.0,26.3,18.0,82,73,59,30.06,29.69,22,5,0,0.00
2012-1-21,41.9,30.7,19.2,35.0,18.0,10.0,78,60,43,30.17,29.76,16,5,0,0.00
2012-1-22,41.8,41.8,41.8,35.0,35.0,35.0,78,78,78,29.76,29.76,10,8,0,0.00
2012-1-23,58.1,48.5,35.5,30.0,21.0,16.0,76,37,20,30.05,29.95,9,2,0,0.00
2012-1-24,63.2,49.3,37.0,40.0,24.5,20.0,78,41,21,30.13,30.01,15,4,0,0.13
2012-1-25,48.3,44.9,42.1,42.0,40.8,39.0,91,85,78,30.09,29.86,15,5,0,0.51
2012-1-26,60.9,49.0,42.9,41.0,31.4,15.0,87,58,19,29.95,29.84,15,5,0,0.00
2012-1-27,63.1,48.2,36.5,38.0,29.2,20.0,78,50,27,30.22,29.77,18,6,0,0.00
2012-1-28,50.7,41.4,31.8,27.0,18.3,11.0,65,42,21,30.48,30.22,10,2,0,0.00
2012-1-29,59.5,46.2,33.5,28.0,22.9,16.0,59,42,26,30.36,30.18,17,6,0,0.00
2012-1-30,65.8,54.3,42.9,50.0,36.8,26.0,74,53,41,30.17,29.93,21,9,0,0.00
2012-1-31,71.5,62.3,55.0,54.0,49.2,39.0,80,63,43,30.02,29.86,21,9,0,0.00
2012-2-1,66.9,54.5,42.8,38.0,30.8,-99.9,65,43,26,30.15,30.01,10,-6,0,0.00
2012-2-2,66.3,54.7,42.5,48.0,37.6,26.0,64,53,37,30.18,30.00,14,4,0,0.00
2012-2-3,59.0,55.0,51.0,55.0,47.8,40.0,92,78,54,30.00,29.82,17,7,0,0.19
2012-2-4,52.0,44.7,39.3,50.0,38.0,30.0,92,78,62,30.31,29.94,15,6,0,0.00
2012-2-5,48.8,40.6,36.8,33.0,29.1,26.0,74,65,44,30.41,30.31,13,4,0,0.00
2012-2-6,56.7,43.5,31.0,30.0,25.7,20.0,80,52,27,30.34,30.17,5,1,0,0.00
2012-2-7,54.8,44.8,37.9,38.0,30.9,25.0,82,60,35,30.41,30.19,10,3,0,0.00
2012-2-8,42.2,38.7,36.9,34.0,32.1,30.0,86,77,68,30.49,30.36,13,2,0,0.00
2012-2-9,48.3,41.7,37.0,39.0,32.0,27.0,87,69,52,30.36,30.11,7,2,0,0.06
2012-2-10,42.3,35.9,23.8,39.0,25.5,6.0,89,68,36,30.44,30.07,22,6,0,0.00
2012-2-11,29.5,23.4,17.3,7.0,4.2,1.0,56,44,31,30.75,30.45,18,7,0,0.00
2012-2-12,36.6,29.0,18.1,14.0,6.2,1.0,63,40,23,30.68,30.18,11,4,0,0.00
2012-2-13,36.9,34.1,31.0,35.0,30.3,20.0,91,86,53,30.18,29.79,25,9,0,0.06
2012-2-14,51.3,41.4,32.8,39.0,34.9,31.0,92,79,57,29.98,29.86,11,4,0,0.00
2012-2-15,51.3,45.9,40.9,49.0,43.1,37.0,92,90,83,30.05,29.79,12,4,0,0.11
2012-2-16,57.6,48.4,40.3,44.0,34.7,28.0,92,63,33,30.29,30.05,12,3,0,0.00
2012-2-17,55.1,48.5,40.2,45.0,39.0,31.0,80,70,56,30.17,30.04,6,1,0,0.00
2012-2-18,50.4,44.6,39.3,44.0,38.2,30.0,87,78,68,30.08,30.01,15,6,0,0.00
2012-2-19,57.8,46.5,35.6,37.0,31.8,29.0,77,59,37,30.11,29.96,8,2,0,0.00
2012-2-20,54.8,48.0,41.8,47.0,38.9,31.0,85,72,51,29.99,29.70,27,10,0,0.12
2012-2-21,62.1,49.9,36.9,30.0,25.8,22.0,62,42,23,30.06,29.80,13,4,0,0.00
2012-2-22,74.7,57.8,41.3,41.0,32.5,27.0,70,43,18,29.79,29.39,11,3,0,0.00
2012-2-23,68.4,57.6,46.1,39.0,32.8,22.0,53,40,31,29.89,29.16,24,9,0,0.00
2012-2-24,54.1,45.8,37.5,23.0,20.0,15.0,53,37,23,30.26,29.89,21,6,0,0.00
2012-2-25,62.1,48.5,34.3,27.0,21.9,17.0,64,38,18,30.33,30.00,19,6,0,0.00
2012-2-26,64.3,55.3,45.2,41.0,30.2,20.0,56,39,30,30.14,29.94,18,9,0,0.00
2012-2-27,67.3,57.5,48.0,41.0,28.9,23.0,58,35,25,30.34,30.15,14,5,0,0.00
2012-2-28,69.4,59.7,50.8,61.0,49.3,31.0,83,69,43,30.16,29.63,22,9,0,0.03
2012-2-29,68.1,58.2,48.5,35.0,20.7,-99.9,42,25,16,29.94,29.72,15,-18,0,0.00
2012-3-1,78.5,61.4,47.1,60.0,30.6,19.0,79,35,11,29.87,29.38,22,9,0,0.00
2012-3-2,66.9,54.0,40.9,61.0,37.8,27.0,82,56,33,29.95,29.31,17,6,0,0.00
2012-3-3,42.6,41.6,39.6,31.0,30.1,27.0,67,64,62,30.04,29.93,3,1,0,0.00
2012-3-7,68.9,66.9,64.0,58.0,56.4,55.0,78,69,63,29.89,29.79,18,11,0,0.00
2012-3-8,64.3,43.2,37.8,57.0,36.6,29.0,85,78,68,30.49,29.86,26,8,0,0.02
2012-3-9,64.3,45.7,35.2,29.0,15.3,-99.9,73,39,21,30.54,30.36,12,-73,0,0.00
2012-3-10,65.0,53.1,39.9,43.0,30.2,25.0,80,44,22,30.37,30.10,13,4,0,0.06
2012-3-11,54.8,50.0,46.7,51.0,45.6,-99.9,92,87,82,30.10,29.82,14,-6,0,0.56
2012-3-12,78.6,63.6,52.2,52.0,49.3,46.0,89,64,32,29.95,29.79,16,8,0,0.00
2012-3-13,83.4,68.6,56.6,60.0,56.2,52.0,90,67,39,29.98,29.89,19,7,0,0.00
2012-3-14,75.8,69.4,62.6,63.0,59.6,58.0,89,72,57,30.01,29.91,18,7,0,0.00
2012-3-15,80.1,72.3,66.4,63.0,61.3,59.0,80,69,55,30.02,29.92,19,8,0,0.00
2012-3-16,77.2,70.3,64.5,64.0,61.6,60.0,87,74,61,30.00,29.90,21,6,0,0.00
2012-3-17,77.2,71.6,66.8,62.0,59.6,57.0,81,67,54,29.92,29.82,29,9,0,0.00
2012-3-18,75.1,70.3,66.3,61.0,59.1,58.0,77,68,57,29.90,29.77,24,10,0,0.00
2012-3-19,70.3,62.8,56.0,63.0,57.7,53.0,93,83,73,29.77,29.64,22,7,0,2.82
2012-3-20,58.9,55.8,53.3,57.0,53.6,51.0,94,92,89,29.80,29.70,6,1,0,1.19
2012-3-21,62.0,55.2,47.6,54.0,50.8,44.0,92,85,64,29.83,29.68,24,2,0,0.37
2012-3-22,57.6,50.0,46.4,47.0,45.4,42.0,92,84,56,29.86,29.75,14,4,0,0.14
2012-3-23,66.1,54.0,44.1,49.0,44.9,42.0,92,74,45,29.96,29.85,13,3,0,0.00
2012-3-24,78.3,62.7,47.6,49.0,45.3,42.0,87,58,27,30.03,29.93,9,1,0,0.00
2012-3-25,81.1,67.4,53.5,51.0,47.5,44.0,77,52,27,30.07,29.94,6,1,0,0.00
2012-3-26,82.4,68.9,57.2,57.0,49.3,-99.9,76,54,34,30.03,29.88,14,-18,0,0.00
2012-3-27,83.2,71.7,61.0,59.0,55.3,51.0,81,58,36,29.95,29.87,20,8,0,0.00
2012-3-28,81.6,72.0,62.6,60.0,57.4,55.0,78,61,46,29.95,29.82,16,6,0,0.00
2012-3-29,79.8,70.1,59.3,62.0,57.2,54.0,86,65,44,29.86,29.71,15,6,0,0.00
2012-3-30,84.1,73.0,62.6,62.0,59.1,54.0,88,64,36,29.81,29.66,13,4,0,0.00
2012-3-31,84.7,74.4,62.9,66.0,62.0,59.0,88,67,42,29.80,29.69,12,2,0,0.00
2012-4-1,89.7,77.1,66.0,65.0,63.3,61.0,90,65,39,29.70,29.50,22,9,0,0.00
2012-4-2,84.5,74.9,65.8,64.0,61.3,55.0,84,64,45,29.69,29.51,27,9,0,0.00
2012-4-3,74.2,65.9,59.6,60.0,56.6,55.0,85,73,54,29.84,29.66,14,2,0,0.03
2012-4-4,71.6,63.3,58.4,58.0,52.3,41.0,87,70,38,29.78,29.66,12,4,0,0.00
2012-4-5,66.4,59.2,53.2,54.0,50.7,46.0,86,74,62,29.94,29.69,12,4,0,0.00
2012-4-6,68.6,59.0,50.2,53.0,50.4,47.0,88,74,56,30.07,29.95,7,2,0,0.00
2012-4-7,66.4,59.9,55.7,57.0,51.7,47.0,88,75,57,30.25,29.98,15,5,0,0.04
2012-4-8,69.6,61.3,54.8,57.0,52.4,45.0,86,73,49,30.30,30.16,13,3,0,0.00
2012-4-9,77.4,67.2,60.2,59.0,56.6,55.0,90,71,47,30.17,29.98,12,1,0,0.00
2012-4-10,77.0,66.8,58.9,58.0,53.3,43.0,86,64,42,30.09,29.98,9,4,0,0.00
2012-4-11,66.3,59.0,51.1,51.0,46.7,43.0,81,65,50,30.22,30.05,11,3,0,0.11
2012-4-12,69.8,59.1,53.1,51.0,47.5,42.0,81,67,50,34.42,29.87,15,6,0,0.00
2012-4-13,74.4,67.5,59.2,65.0,59.2,49.0,84,75,67,29.89,29.71,25,9,0,0.01
2012-4-14,76.1,72.6,66.8,66.0,63.5,62.0,86,73,64,29.81,29.55,21,10,0,0.03
2012-4-15,75.4,68.3,61.0,64.0,52.8,40.0,87,59,39,29.80,29.52,23,9,0,0.62
2012-4-16,72.8,62.2,52.3,42.0,39.7,34.0,63,45,26,30.18,29.80,16,3,0,0.00
2012-4-17,75.4,63.8,51.3,50.0,45.0,39.0,76,53,28,30.24,30.11,10,2,0,0.00
2012-4-18,76.3,65.2,52.6,54.0,50.6,47.0,84,61,44,30.12,29.89,17,7,0,0.00
2012-4-19,79.9,68.8,56.7,60.0,52.1,47.0,76,57,39,29.90,29.66,19,9,0,0.01
2012-4-20,68.9,58.8,51.6,61.0,46.2,38.0,88,65,43,30.00,29.69,17,7,0,0.20
2012-4-21,73.2,58.7,43.2,46.0,41.2,38.0,86,56,28,30.03,29.89,6,1,0,0.00
2012-4-22,69.9,61.1,54.8,47.0,39.1,31.0,75,47,26,30.15,29.94,18,6,0,0.00
2012-4-23,72.8,58.6,46.7,43.0,39.6,35.0,74,52,27,30.22,29.98,9,1,0,0.00
2012-4-24,85.9,69.3,51.1,58.0,49.0,42.0,79,51,31,29.98,29.63,16,7,0,0.00
2012-4-25,86.5,77.4,67.4,67.0,60.3,55.0,70,57,42,29.68,29.57,17,8,0,0.00
2012-4-26,89.9,77.7,67.4,68.0,60.2,48.0,88,59,24,29.82,29.68,11,2,0,0.00
2012-4-27,84.0,75.6,69.1,65.0,62.3,57.0,82,65,47,29.79,29.55,23,8,0,0.00
2012-4-28,78.3,73.1,69.8,64.0,63.0,61.0,79,71,59,29.83,29.65,13,5,0,0.00
2012-4-29,80.3,73.9,69.4,67.0,64.2,62.0,80,72,60,29.90,29.78,17,6,0,0.00
2012-4-30,81.8,71.4,59.9,70.0,63.7,57.0,90,77,64,29.96,29.76,15,6,0,0.34
2012-5-1,83.6,75.0,63.1,69.0,63.6,56.0,87,69,54,29.81,29.67,26,12,0,0.46
2012-5-2,82.4,76.5,70.9,67.0,64.5,60.0,77,67,58,29.79,29.69,22,12,0,0.00
2012-5-3,89.3,79.5,69.1,71.0,67.3,64.0,84,67,52,29.81,29.73,19,9,0,0.00
2012-5-4,88.0,79.5,74.4,72.0,68.4,66.0,78,69,54,29.81,29.70,18,8,0,0.00
2012-5-5,86.7,78.1,69.1,69.0,65.6,61.0,88,67,44,29.80,29.69,17,7,0,0.00
2012-5-6,85.7,77.7,71.5,72.0,68.9,66.0,84,75,59,29.76,29.69,16,6,0,0.00
2012-5-7,78.1,71.3,65.8,70.0,61.5,52.0,88,72,57,29.95,29.75,14,6,0,0.00
2012-5-8,76.8,66.0,59.2,53.0,48.4,40.0,73,55,31,30.05,29.94,14,3,0,0.00
2012-5-9,81.1,68.4,54.2,49.0,46.9,44.0,79,49,27,30.03,29.90,11,2,0,0.00
2012-5-10,82.2,69.7,56.7,53.0,49.8,47.0,75,52,31,29.92,29.82,13,2,0,0.00
2012-5-11,69.3,65.3,60.4,58.0,54.3,51.0,79,68,54,30.04,29.84,7,2,0,0.00
2012-5-12,76.0,67.3,60.5,60.0,57.2,54.0,89,71,47,30.13,30.03,9,2,0,0.12
2012-5-13,80.7,70.3,60.9,58.0,55.4,50.0,84,62,38,30.16,30.05,11,4,0,0.00
2012-5-14,82.0,71.4,60.2,57.0,50.5,41.0,80,51,23,30.11,29.98,13,3,0,0.00
2012-5-15,87.8,72.4,58.0,54.0,49.1,44.0,79,48,23,30.04,29.93,7,1,0,0.00
2012-5-16,91.0,76.0,59.8,57.0,52.8,50.0,74,47,26,30.01,29.89,11,1,0,0.00
2012-5-17,74.4,69.9,65.3,57.0,55.7,55.0,72,61,52,29.93,29.91,2,0,0,0.00
2012-5-30,89.0,84.9,77.9,62.0,58.9,54.0,59,42,31,29.84,29.63,14,4,0,0.00
2012-5-31,78.3,69.5,62.6,62.0,54.8,45.0,90,62,35,29.95,29.57,22,7,0,0.35
2012-6-1,70.4,60.3,54.5,54.0,49.3,44.0,88,68,39,30.01,29.88,9,2,0,0.06
2012-6-2,89.3,71.3,55.4,63.0,57.3,52.0,89,65,34,29.92,29.75,6,2,0,0.12
2012-6-3,92.5,81.3,69.9,73.0,67.1,63.0,81,63,45,29.81,29.68,15,3,0,0.01
2012-6-4,93.6,78.8,66.1,71.0,65.1,59.0,92,66,32,29.89,29.68,14,3,0,1.75
2012-6-5,91.4,81.6,71.8,70.0,66.0,61.0,79,61,37,29.80,29.69,11,4,0,0.00
2012-6-6,86.7,78.0,69.3,63.0,59.0,56.0,71,53,37,29.87,29.75,10,2,0,0.00
2012-6-7,85.7,75.4,67.8,60.0,55.0,52.0,68,50,33,30.00,29.86,12,2,0,0.00
2012-6-8,88.6,75.5,62.1,57.0,53.2,48.0,72,49,25,30.01,29.82,11,2,0,0.00
2012-6-9,90.7,79.3,65.8,66.0,61.1,53.0,75,55,38,29.83,29.63,17,4,0,0.00
2012-6-10,91.6,82.5,72.7,69.0,66.8,63.0,77,60,45,29.70,29.61,20,8,0,0.00
2012-6-11,88.2,81.6,76.0,72.0,69.4,67.0,76,67,57,29.93,29.67,16,4,0,0.00
2012-6-12,91.0,80.0,70.1,68.0,56.2,48.0,82,48,23,30.07,29.90,12,3,0,0.00
2012-6-13,84.7,76.5,67.3,67.0,60.7,54.0,70,58,50,29.99,29.85,13,3,0,0.00
2012-6-14,92.1,80.9,69.3,70.0,65.5,60.0,77,61,44,29.89,29.70,15,5,0,0.00
2012-6-15,85.5,77.8,66.0,70.0,66.1,62.0,90,68,50,29.93,29.73,13,3,0,0.28
2012-6-16,90.1,80.1,70.4,71.0,67.4,64.0,82,66,50,30.02,29.89,13,3,0,0.00
2012-6-17,92.9,82.8,71.8,70.0,67.8,66.0,84,62,42,29.94,29.72,18,6,0,0.00
2012-6-18,92.3,83.7,74.4,68.0,64.3,56.0,76,54,29,29.73,29.67,24,9,0,0.00
2012-6-19,90.3,81.2,74.2,69.0,67.3,64.0,80,64,45,29.82,29.72,23,8,0,0.00
2012-6-20,88.6,81.8,75.8,69.0,67.1,63.0,76,62,43,29.89,29.81,19,8,0,0.00
2012-6-21,85.3,78.2,69.1,71.0,67.1,63.0,87,69,57,30.03,29.86,15,3,0,0.03
2012-6-22,94.3,81.7,69.6,69.0,63.7,57.0,89,59,30,29.96,29.82,8,2,0,0.00
2012-6-23,97.1,85.2,71.1,69.0,63.2,59.0,74,50,30,29.86,29.77,17,4,0,0.00
2012-6-24,101.0,88.0,75.1,66.0,61.0,-99.9,66,43,27,29.90,29.79,9,-9,0,0.00
2012-6-25,107.4,91.8,77.2,69.0,64.4,58.0,69,43,21,29.86,29.69,5,1,0,0.00
2012-6-26,105.7,92.4,79.9,70.0,67.6,63.0,72,46,26,29.77,29.67,10,1,0,0.00
2012-6-27,101.5,89.4,78.1,68.0,61.5,55.0,58,40,27,29.86,29.71,11,4,0,0.00
2012-6-28,104.1,90.0,73.7,65.0,57.2,50.0,47,34,20,29.92,29.83,15,4,0,0.00
2012-6-29,101.0,90.6,78.8,68.0,61.6,57.0,56,39,24,29.90,29.75,17,6,0,0.00
2012-6-30,99.0,89.4,78.3,67.0,61.5,57.0,62,41,28,29.83,29.73,20,5,0,0.00
2012-7-1,96.3,80.0,75.3,69.0,51.7,-99.9,67,45,31,29.91,29.80,15,-71,0,0.00
2012-7-2,95.9,83.8,74.4,70.0,67.0,63.0,78,59,34,29.97,29.86,17,5,0,0.00
2012-7-3,98.5,88.3,78.5,69.0,61.0,46.0,71,44,17,29.92,29.78,18,6,0,0.00
2012-7-4,99.7,89.1,78.1,68.0,62.1,56.0,69,43,24,29.91,29.79,17,6,0,0.00
2012-7-5,100.2,90.1,77.0,67.0,62.0,57.0,65,41,25,29.94,29.82,15,4,0,0.00
2012-7-6,102.8,91.5,77.0,65.0,60.9,58.0,63,38,23,29.95,29.82,14,2,0,0.00
2012-7-7,96.6,86.2,77.6,72.0,66.3,61.0,79,53,33,30.01,29.86,6,1,0,0.06
2012-7-8,98.2,87.0,79.2,69.0,65.0,60.0,68,50,28,29.95,29.82,10,1,0,0.00
2012-7-9,98.5,86.0,74.4,71.0,66.7,60.0,85,56,28,29.91,29.79,15,2,0,0.00
2012-7-10,95.6,85.4,74.6,70.0,64.9,56.0,82,53,31,29.92,29.82,12,2,0,0.00
2012-7-11,100.2,87.1,74.7,70.0,62.2,51.0,82,48,20,29.92,29.80,12,2,0,0.00
2012-7-12,101.0,88.0,75.6,69.0,62.5,54.0,72,46,22,29.90,29.81,9,1,0,0.00
2012-7-13,101.0,84.6,74.7,70.0,65.1,58.0,76,55,24,29.93,29.84,21,2,0,0.00
2012-7-14,101.5,83.8,71.8,69.0,64.7,57.0,82,56,23,29.97,29.84,19,2,0,0.00
2012-7-15,93.4,79.3,68.1,69.0,65.6,63.0,88,65,38,30.00,29.86,14,2,0,0.00
2012-7-16,95.1,84.5,74.9,71.0,67.0,61.0,84,59,33,29.93,29.77,20,4,0,0.00
2012-7-17,99.7,89.0,78.6,69.0,64.5,57.0,70,47,25,29.87,29.75,16,6,0,0.00
2012-7-18,103.1,90.7,79.8,67.0,61.6,-99.9,65,41,22,29.91,29.77,14,-6,0,0.00
2012-7-19,106.8,90.8,76.3,71.0,65.6,60.0,81,47,22,29.94,29.78,14,4,0,0.23
2012-7-20,108.2,91.3,76.3,69.0,62.8,51.0,76,45,17,29.93,29.81,11,3,0,0.00
2012-7-21,105.7,90.6,75.8,69.0,58.3,49.0,61,37,17,29.91,29.81,12,3,0,0.00
2012-7-22,102.5,90.7,79.2,71.0,62.0,55.0,67,41,23,29.96,29.86,13,2,0,0.00
2012-7-23,100.7,90.4,79.8,71.0,65.8,59.0,71,47,27,30.00,29.87,14,4,0,0.00
2012-7-24,101.0,89.5,79.2,70.0,65.8,60.0,72,48,27,29.95,29.77,16,6,0,0.00
2012-7-25,103.1,93.3,80.3,69.0,65.2,61.0,67,42,26,29.81,29.64,16,8,0,0.00
2012-7-26,97.8,88.9,77.9,70.0,67.3,64.0,75,50,34,29.83,29.68,13,4,0,0.00
2012-7-27,104.9,88.2,73.3,72.0,65.2,55.0,89,54,21,29.91,29.83,9,1,0,0.00
2012-7-28,107.9,94.0,79.0,69.0,60.4,48.0,66,37,14,29.98,29.85,12,2,0,0.00
2012-7-29,107.7,95.9,81.2,64.0,57.2,49.0,51,30,16,29.93,29.77,15,4,0,0.00
2012-7-30,109.6,96.4,84.0,60.0,55.6,52.0,39,27,16,29.85,29.72,17,4,0,0.00
2012-7-31,110.5,96.8,84.0,62.0,56.6,52.0,44,27,15,29.84,29.70,16,5,0,0.00
2012-8-1,114.5,98.1,83.2,65.0,61.2,55.0,53,32,15,29.77,29.60,12,4,0,0.00
2012-8-2,111.6,99.2,85.9,62.0,59.1,53.0,44,28,15,29.70,29.55,16,3,0,0.00
2012-8-3,108.2,94.8,82.6,66.0,62.8,59.0,52,36,23,29.70,29.58,18,4,0,0.00
2012-8-4,108.8,95.8,83.6,68.0,63.0,57.0,54,36,19,29.83,29.66,19,7,0,0.00
2012-8-5,95.6,85.6,73.7,70.0,62.9,52.0,79,50,25,30.07,29.84,21,4,0,0.00
2012-8-6,103.1,89.8,75.3,68.0,54.8,44.0,57,34,14,30.02,29.84,5,2,0,0.00
2012-8-7,107.1,91.7,76.8,69.0,57.5,46.0,64,35,15,29.89,29.76,11,1,0,0.00
2012-8-8,106.5,88.7,76.3,69.0,63.1,56.0,73,46,20,29.87,29.73,15,3,0,0.00
2012-8-9,99.7,86.2,73.9,67.0,61.7,53.0,76,48,23,29.83,29.74,15,6,0,0.00
2012-8-10,94.0,82.7,72.1,61.0,52.9,42.0,67,39,18,29.93,29.83,19,5,0,0.00
2012-8-11,92.1,80.1,66.9,52.0,49.0,46.0,56,36,22,29.97,29.82,9,2,0,0.00
2012-8-12,98.7,84.9,73.7,68.0,59.2,48.0,58,43,28,29.88,29.70,14,3,0,0.00
2012-8-13,89.5,82.0,73.5,57.0,55.7,53.0,57,41,30,29.95,29.78,17,4,0,0.00
2012-8-14,84.1,74.4,68.1,61.0,58.5,52.0,74,59,34,29.96,29.80,20,2,0,0.03
2012-8-15,97.5,82.9,69.1,68.0,62.7,58.0,74,53,31,29.86,29.72,15,3,0,0.00
2012-8-16,100.4,85.2,74.0,72.0,66.7,55.0,80,57,28,29.94,29.75,24,5,0,0.79
2012-8-17,90.5,78.8,69.1,57.0,52.8,49.0,57,42,24,29.99,29.84,11,3,0,0.00
2012-8-18,76.5,71.9,67.9,67.0,63.5,52.0,88,76,43,29.94,29.80,11,1,0,0.18
2012-8-19,88.6,74.9,64.7,67.0,61.3,57.0,90,66,35,29.90,29.81,7,1,0,0.00
2012-8-20,91.6,78.2,65.0,61.0,50.3,39.0,82,45,16,29.96,29.84,11,1,0,0.00
2012-8-21,94.0,80.9,67.6,57.0,50.2,43.0,63,37,18,29.98,29.90,7,1,0,0.00
2012-8-22,92.5,81.4,68.6,62.0,54.8,47.0,74,44,22,30.04,29.91,11,2,0,0.00
2012-8-23,92.1,80.2,66.9,58.0,53.1,46.0,71,42,21,30.00,29.86,15,4,0,0.00
2012-8-24,91.2,81.2,70.3,64.0,58.2,52.0,57,47,29,29.90,29.74,16,5,0,0.00
2012-8-25,85.9,79.3,71.8,71.0,68.9,64.0,88,71,54,29.86,29.74,17,7,0,1.38
2012-8-26,92.1,79.3,70.3,73.0,69.0,65.0,92,74,41,29.93,29.82,12,2,0,0.64
2012-8-27,94.3,81.7,72.5,71.0,67.3,62.0,86,64,36,30.01,29.90,14,3,0,0.00
2012-8-28,95.6,84.0,69.6,65.0,57.9,51.0,78,45,22,30.02,29.87,7,2,0,0.00
2012-8-29,97.1,83.9,71.1,60.0,53.2,45.0,65,38,17,29.93,29.77,13,2,0,0.00
2012-8-30,98.0,85.3,72.8,66.0,58.6,49.0,58,42,27,29.85,29.69,16,4,0,0.00
2012-8-31,88.8,79.4,73.3,72.0,67.3,63.0,89,68,44,29.84,29.67,13,5,0,0.07
2012-9-1,99.7,86.8,76.5,66.0,61.6,55.0,70,46,23,29.91,29.79,14,3,0,0.00
2012-9-2,104.4,88.2,73.5,69.0,65.0,57.0,82,50,21,29.86,29.73,12,1,0,0.00
2012-9-3,105.1,91.7,78.6,68.0,63.6,57.0,63,42,21,29.82,29.71,14,2,0,0.00
2012-9-4,104.9,91.8,79.9,65.0,62.2,53.0,60,40,19,29.80,29.67,6,1,0,0.00
2012-9-5,102.3,89.4,76.5,70.0,65.1,57.0,73,47,23,29.76,29.68,12,1,0,0.02
2012-9-6,97.8,88.2,80.5,69.0,66.3,63.0,63,49,33,29.83,29.71,10,2,0,0.00
2012-9-7,104.4,80.1,65.2,69.0,64.0,59.0,86,62,24,29.95,29.58,24,6,0,0.05
2012-9-8,82.4,70.5,59.6,60.0,49.3,41.0,83,52,24,30.11,29.95,19,3,0,0.00
2012-9-9,91.0,73.6,58.4,51.0,46.9,42.0,71,43,20,30.08,29.99,12,3,0,0.00
2012-9-10,91.4,74.1,59.0,55.0,49.6,-99.9,75,47,18,30.08,29.93,9,-9,0,0.00
2012-9-11,90.7,77.9,64.3,58.0,52.6,47.0,76,45,22,30.02,29.89,14,5,0,0.00
2012-9-12,89.9,79.0,68.8,60.0,55.8,50.0,67,47,27,30.00,29.89,22,6,0,0.00
2012-9-13,85.5,72.4,62.7,66.0,60.2,54.0,85,66,50,30.16,29.96,21,3,0,0.61
2012-9-14,62.6,60.1,58.0,60.0,56.8,55.0,92,89,76,30.20,30.14,14,5,0,0.10
2012-9-15,74.7,66.9,62.0,65.0,62.2,60.0,93,85,69,30.15,30.01,4,0,0,0.07
2012-9-16,74.4,69.2,66.3,65.0,62.3,59.0,91,79,60,30.03,29.90,6,1,0,0.00
2012-9-17,82.2,71.0,62.3,65.0,61.3,59.0,92,73,47,29.91,29.76,5,0,0,0.00
2012-9-18,77.4,66.6,56.5,60.0,47.2,40.0,84,53,28,30.07,29.86,14,4,0,0.05
2012-9-19,84.3,70.3,56.6,51.0,46.9,43.0,73,47,25,30.05,29.89,19,5,0,0.00
2012-9-20,88.6,75.3,62.7,61.0,54.0,47.0,69,49,33,29.95,29.83,15,2,0,0.00
2012-9-21,93.8,79.1,66.4,61.0,55.9,49.0,72,48,25,29.87,29.77,10,3,0,0.00
2012-9-22,87.8,74.5,62.6,51.0,45.6,38.0,61,38,19,30.10,29.88,14,4,0,0.00
2012-9-23,77.9,60.8,55.3,55.0,35.4,-99.9,65,47,34,30.23,30.07,12,-70,0,0.01
2012-9-24,90.7,74.3,62.0,63.0,54.5,48.0,63,52,31,30.08,29.80,17,6,0,0.00
2012-9-25,94.3,84.2,76.7,62.0,56.9,50.0,60,41,27,29.82,29.70,19,9,0,0.00
2012-9-26,81.6,74.2,67.8,67.0,59.4,53.0,85,61,40,30.00,29.74,20,3,0,0.21
2012-9-27,79.8,71.9,64.2,65.0,62.5,61.0,89,73,56,30.07,29.97,19,2,0,0.35
2012-9-28,83.8,74.2,66.1,67.0,63.9,62.0,90,72,49,30.04,29.93,7,1,0,0.00
2012-9-29,73.5,68.9,66.1,66.0,64.6,62.0,92,86,76,29.99,29.90,10,2,0,0.85
2012-9-30,77.0,68.4,63.1,64.0,54.8,47.0,91,64,36,29.91,29.80,8,2,0,0.00
2012-10-1,66.4,63.8,62.1,51.0,49.8,48.0,64,61,57,29.79,29.75,6,1,0,0.00
2012-10-17,81.2,71.1,60.2,60.0,40.7,29.0,50,34,25,29.73,29.42,12,4,0,0.00
2012-10-18,69.9,61.6,51.4,31.0,22.2,15.0,42,24,12,29.86,29.74,25,7,0,0.00
2012-10-19,69.8,59.6,51.1,32.0,25.1,20.0,47,27,19,29.86,29.77,14,4,0,0.00
2012-10-20,83.2,64.6,47.1,55.0,43.0,30.0,65,47,30,29.81,29.64,14,4,0,0.00
2012-10-21,83.8,74.5,66.0,68.0,63.6,55.0,85,69,59,29.74,29.65,19,8,0,0.00
2012-10-22,79.6,74.8,71.3,68.0,64.8,59.0,83,71,53,29.83,29.73,20,9,0,0.00
2012-10-23,79.0,73.8,70.1,67.0,65.4,64.0,86,75,64,29.83,29.73,17,9,0,0.00
2012-10-24,82.6,74.3,67.4,65.0,61.9,60.0,82,67,48,29.84,29.67,20,8,0,0.00
2012-10-25,72.3,59.6,46.7,64.0,49.7,34.0,80,70,60,30.17,29.67,20,9,0,0.00
2012-10-26,50.2,43.9,39.5,35.0,29.6,27.0,73,58,42,30.39,30.18,26,8,0,0.00
2012-10-27,52.8,42.7,32.5,30.0,27.0,23.0,78,56,32,30.36,30.19,9,3,0,0.00
2012-10-28,58.7,44.9,32.5,32.0,27.3,23.0,80,54,25,30.30,30.19,7,1,0,0.00
2012-10-29,64.7,50.4,37.6,33.0,29.4,27.0,74,48,25,30.29,30.05,11,1,0,0.00
2012-10-30,76.1,56.5,41.3,40.0,34.4,30.0,67,46,24,30.05,29.82,12,2,0,0.00
2012-10-31,70.1,57.2,45.7,41.0,35.4,31.0,71,47,26,30.02,29.84,9,2,0,0.00
2012-11-1,80.7,62.5,47.3,45.0,39.4,35.0,69,46,23,29.98,29.85,7,1,0,0.00
2012-11-2,86.5,69.2,53.1,51.0,46.5,42.0,74,48,22,29.87,29.73,17,4,0,0.00
2012-11-3,65.2,57.2,49.8,44.0,36.5,33.0,59,47,33,30.12,29.86,10,4,0,0.00
2012-11-4,70.4,55.5,43.8,40.0,36.4,34.0,73,51,27,30.17,30.00,6,1,0,0.00
2012-11-5,63.2,55.0,45.4,47.0,39.9,36.0,81,58,44,30.08,29.96,18,4,0,0.00
2012-11-6,67.8,52.8,39.1,40.0,35.6,31.0,85,56,31,30.11,29.99,11,2,0,0.00
2012-11-7,65.6,53.7,43.5,32.0,28.7,26.0,59,40,24,30.16,30.05,9,1,0,0.00
2012-11-8,74.0,58.9,45.2,47.0,38.2,30.0,64,48,32,30.05,29.84,25,9,0,0.00
2012-11-9,77.9,67.1,57.5,59.0,52.7,-99.9,80,62,51,29.89,29.76,21,0,0,0.00
2012-11-10,75.8,70.1,63.4,58.0,55.3,54.0,78,60,47,29.87,29.68,24,14,0,0.00
2012-11-11,70.9,51.0,34.9,61.0,43.6,23.0,90,76,61,30.27,29.65,21,7,0,0.64
2012-11-12,52.6,40.5,29.4,27.0,22.9,18.0,78,53,28,30.48,30.28,7,1,0,0.00
2012-11-13,57.6,45.3,32.9,28.0,22.7,17.0,69,44,21,30.49,30.31,8,2,0,0.00
2012-11-14,59.3,47.0,37.5,31.0,27.2,24.0,69,48,26,30.40,30.25,9,2,0,0.00
2012-11-15,63.2,49.2,37.8,32.0,29.3,26.0,69,49,27,30.33,30.23,13,2,0,0.00
2012-11-16,63.9,50.8,39.2,36.0,31.3,27.0,74,50,25,30.41,30.31,5,0,0,0.00
2012-11-17,61.3,50.3,38.6,34.0,28.7,22.0,74,46,22,30.39,30.25,15,3,0,0.00
2012-11-18,63.7,52.7,42.6,36.0,33.0,30.0,65,49,31,30.27,30.13,16,5,0,0.00
2012-11-19,72.1,59.3,51.0,50.0,44.4,36.0,76,59,45,30.15,30.04,11,4,0,0.02
2012-11-20,73.3,59.5,48.9,53.0,44.4,36.0,85,61,27,30.18,30.09,5,0,0,0.00
2012-11-21,76.8,60.2,45.8,44.0,38.3,30.0,83,49,18,30.22,30.01,16,3,0,0.00
2012-11-22,74.9,64.6,56.7,52.0,45.6,40.0,68,51,38,30.15,29.86,24,8,0,0.01
2012-11-23,59.6,47.4,37.2,41.0,24.3,16.0,68,42,27,30.48,30.16,20,5,0,0.00
2012-11-24,53.8,43.0,29.1,22.0,18.9,14.0,69,41,27,30.44,29.99,13,4,0,0.00
2012-11-25,65.6,52.9,40.5,36.0,28.4,19.0,58,40,28,29.99,29.79,12,4,0,0.00
2012-11-26,49.8,44.3,37.3,37.0,31.8,24.0,77,62,44,30.37,29.83,21,8,0,0.00
2012-11-27,49.4,37.4,27.3,27.0,24.2,21.0,80,61,33,30.48,30.29,9,2,0,0.00
2012-11-28,58.9,45.7,33.1,34.0,30.3,25.0,76,57,39,30.41,30.17,12,4,0,0.00
2012-11-29,67.6,54.0,43.6,38.0,33.7,31.0,65,48,26,30.17,29.99,21,8,0,0.00
2012-11-30,62.4,55.5,47.3,54.0,45.9,33.0,82,71,49,30.08,29.96,15,5,0,0.00
2012-12-1,76.8,67.7,57.6,60.0,57.3,53.0,87,71,50,29.96,29.75,25,10,0,0.00
2012-12-2,76.5,65.8,57.2,59.0,55.9,50.0,90,72,51,30.00,29.86,16,5,0,0.00
2012-12-3,76.3,69.0,57.0,59.0,56.6,49.0,76,65,49,29.92,29.74,27,12,0,0.18
2012-12-4,63.1,56.0,48.3,49.0,33.6,25.0,77,45,25,30.29,29.93,13,5,0,0.01
2012-12-5,61.5,50.8,40.8,36.0,30.2,24.0,71,48,25,30.30,30.01,15,2,0,0.00
2012-12-6,62.6,52.2,43.8,48.0,42.5,36.0,84,70,54,30.00,29.77,17,5,0,0.00
2012-12-7,56.7,53.1,49.9,53.0,49.0,45.0,90,86,81,29.86,29.75,5,0,0,0.00
2012-12-8,55.9,48.1,48.3,50.0,36.4,-99.9,90,78,73,29.91,29.77,7,-71,0,0.00
2012-12-9,50.8,44.3,30.1,47.0,31.6,-99.9,89,68,42,30.11,29.71,18,-26,0,0.00
2012-12-10,35.8,28.6,23.2,13.0,10.9,9.0,59,48,33,30.18,30.07,14,4,0,0.00
2012-12-11,50.4,31.5,20.5,14.0,0.9,-99.9,61,36,16,30.21,30.08,11,-71,0,0.00
2012-12-12,51.7,40.2,27.2,18.0,11.0,7.0,52,32,19,30.29,30.15,14,5,0,0.00
2012-12-13,60.7,47.6,36.0,24.0,18.7,14.0,46,33,22,30.21,30.08,23,9,0,0.00
2012-12-14,54.2,45.0,43.5,42.0,23.8,-99.9,86,50,33,30.11,29.73,19,-35,0,0.10
2012-12-15,62.7,54.5,45.5,48.0,38.6,35.0,90,58,38,29.74,29.62,19,6,0,0.00
2012-12-16,67.9,53.9,43.6,38.0,33.7,24.0,79,50,20,29.72,29.56,13,3,0,0.00
2012-12-17,56.5,44.3,37.0,37.0,33.9,32.0,84,68,41,29.83,29.70,10,3,0,0.00
2012-12-18,62.9,49.5,39.2,35.0,32.1,28.0,77,54,27,29.79,29.70,9,2,0,0.00
2012-12-19,69.8,55.9,42.3,59.0,45.3,31.0,78,69,36,29.77,29.39,22,6,0,0.00
2012-12-20,53.2,39.0,32.5,37.0,16.8,-99.9,67,44,23,30.34,29.48,33,0,0,0.00
2012-12-21,58.1,40.3,25.6,18.0,13.8,11.0,55,37,17,30.38,30.20,7,1,0,0.00
2012-12-22,63.2,49.0,34.7,32.0,17.1,10.0,53,31,13,30.21,29.93,14,4,0,0.00
2012-12-23,61.3,48.2,32.1,45.0,36.1,24.0,83,64,46,29.91,29.76,12,2,0,0.00
2012-12-24,38.9,31.0,24.4,23.0,20.9,18.0,78,67,50,30.07,29.90,14,5,0,0.00
2012-12-25,30.9,27.1,22.9,21.0,17.9,11.0,77,69,60,30.16,29.94,21,11,0,0.00
2012-12-26,33.5,24.2,15.1,16.0,11.5,6.0,69,59,48,30.29,30.12,13,3,0,0.00
2012-12-27,35.8,30.1,23.8,27.0,22.2,16.0,80,72,65,30.13,29.91,19,4,0,0.00
2012-12-28,34.4,31.9,25.4,29.0,23.8,11.0,84,73,51,30.17,29.95,11,2,0,0.00
2012-12-29,41.3,28.5,18.4,15.0,12.7,10.0,70,53,33,30.41,30.17,11,2,0,0.00
2012-12-30,41.9,33.7,23.5,27.0,18.1,-99.9,74,56,40,30.40,30.17,13,-6,0,0.00
2012-12-31,38.5,36.5,34.9,36.0,33.7,29.0,91,89,70,30.18,29.96,12,3,0,0.71
2013-1-1,38.6,31.3,24.1,36.0,27.9,19.0,92,87,79,30.29,30.04,11,4,0,0.00